sensor_id;sensor_type;location;lat;lon;timestamp;P1;durP1;ratioP1;P2;durP2;ratioP2
71253;SDS011;59019;47.638;18.966;2022-08-02T00:00:51;5.05;;;3.15;;
71253;SDS011;59019;47.638;18.966;2022-08-02T00:03:17;5.20;;;3.10;;
71253;SDS011;59019;47.638;18.966;2022-08-02T00:05:42;4.75;;;3.00;;
71253;SDS011;59019;47.638;18.966;2022-08-02T00:08:08;5.57;;;3.30;;
71253;SDS011;59019;47.638;18.966;2022-08-02T00:10:33;5.13;;;3.20;;
71253;SDS011;59019;47.638;18.966;2022-08-02T00:12:59;4.68;;;3.28;;
71253;SDS011;59019;47.638;18.966;2022-08-02T00:15:25;5.80;;;3.57;;
71253;SDS011;59019;47.638;18.966;2022-08-02T00:17:50;4.78;;;3.15;;
71253;SDS011;59019;47.638;18.966;2022-08-02T00:20:16;5.03;;;3.13;;
71253;SDS011;59019;47.638;18.966;2022-08-02T00:22:42;5.03;;;3.42;;
71253;SDS011;59019;47.638;18.966;2022-08-02T00:25:07;7.47;;;3.20;;
71253;SDS011;59019;47.638;18.966;2022-08-02T00:27:33;7.35;;;3.70;;
71253;SDS011;59019;47.638;18.966;2022-08-02T00:29:59;4.97;;;3.30;;
71253;SDS011;59019;47.638;18.966;2022-08-02T00:32:24;6.63;;;3.67;;
71253;SDS011;59019;47.638;18.966;2022-08-02T00:34:50;5.93;;;3.58;;
71253;SDS011;59019;47.638;18.966;2022-08-02T00:37:16;5.50;;;3.70;;
71253;SDS011;59019;47.638;18.966;2022-08-02T00:39:42;5.63;;;3.10;;
71253;SDS011;59019;47.638;18.966;2022-08-02T00:42:07;5.95;;;3.42;;
71253;SDS011;59019;47.638;18.966;2022-08-02T00:44:33;5.38;;;3.50;;
71253;SDS011;59019;47.638;18.966;2022-08-02T00:46:59;4.95;;;3.33;;
71253;SDS011;59019;47.638;18.966;2022-08-02T00:49:25;5.90;;;3.22;;
71253;SDS011;59019;47.638;18.966;2022-08-02T00:51:51;5.70;;;3.17;;
71253;SDS011;59019;47.638;18.966;2022-08-02T00:54:17;6.97;;;3.47;;
71253;SDS011;59019;47.638;18.966;2022-08-02T00:56:43;8.23;;;3.78;;
71253;SDS011;59019;47.638;18.966;2022-08-02T00:59:09;5.38;;;3.30;;
71253;SDS011;59019;47.638;18.966;2022-08-02T01:01:35;5.53;;;3.33;;
71253;SDS011;59019;47.638;18.966;2022-08-02T01:04:05;5.47;;;3.40;;
71253;SDS011;59019;47.638;18.966;2022-08-02T01:06:30;5.93;;;3.38;;
71253;SDS011;59019;47.638;18.966;2022-08-02T01:08:57;5.22;;;3.58;;
71253;SDS011;59019;47.638;18.966;2022-08-02T01:11:26;6.05;;;3.55;;
71253;SDS011;59019;47.638;18.966;2022-08-02T01:13:53;6.15;;;3.60;;
71253;SDS011;59019;47.638;18.966;2022-08-02T01:16:22;5.00;;;3.63;;
71253;SDS011;59019;47.638;18.966;2022-08-02T01:18:53;9.00;;;3.80;;
71253;SDS011;59019;47.638;18.966;2022-08-02T01:27:36;4.95;;;3.60;;
71253;SDS011;59019;47.638;18.966;2022-08-02T01:30:10;5.10;;;3.40;;
71253;SDS011;59019;47.638;18.966;2022-08-02T01:32:40;6.03;;;3.60;;
71253;SDS011;59019;47.638;18.966;2022-08-02T01:35:10;5.55;;;3.67;;
71253;SDS011;59019;47.638;18.966;2022-08-02T01:37:50;5.78;;;3.33;;
71253;SDS011;59019;47.638;18.966;2022-08-02T01:40:21;5.03;;;3.40;;
71253;SDS011;59019;47.638;18.966;2022-08-02T01:42:52;6.03;;;3.57;;
71253;SDS011;59019;47.638;18.966;2022-08-02T01:45:19;5.35;;;3.60;;
71253;SDS011;59019;47.638;18.966;2022-08-02T01:47:47;5.47;;;3.85;;
71253;SDS011;59019;47.638;18.966;2022-08-02T01:50:16;7.13;;;3.97;;
71253;SDS011;59019;47.638;18.966;2022-08-02T01:52:49;6.68;;;3.80;;
71253;SDS011;59019;47.638;18.966;2022-08-02T01:55:19;5.47;;;3.73;;
71253;SDS011;59019;47.638;18.966;2022-08-02T01:57:56;8.77;;;4.30;;
71253;SDS011;59019;47.638;18.966;2022-08-02T02:00:25;6.40;;;3.90;;
71253;SDS011;59019;47.638;18.966;2022-08-02T02:02:54;5.20;;;3.85;;
71253;SDS011;59019;47.638;18.966;2022-08-02T02:05:22;6.50;;;3.97;;
71253;SDS011;59019;47.638;18.966;2022-08-02T02:07:52;4.93;;;3.30;;
71253;SDS011;59019;47.638;18.966;2022-08-02T02:10:25;6.18;;;3.60;;
71253;SDS011;59019;47.638;18.966;2022-08-02T02:12:57;5.72;;;3.78;;
71253;SDS011;59019;47.638;18.966;2022-08-02T02:15:27;6.35;;;3.70;;
71253;SDS011;59019;47.638;18.966;2022-08-02T02:17:55;5.80;;;3.72;;
71253;SDS011;59019;47.638;18.966;2022-08-02T02:20:21;6.67;;;3.60;;
71253;SDS011;59019;47.638;18.966;2022-08-02T02:22:47;5.57;;;3.70;;
71253;SDS011;59019;47.638;18.966;2022-08-02T02:25:14;6.57;;;3.97;;
71253;SDS011;59019;47.638;18.966;2022-08-02T02:27:45;5.53;;;3.80;;
71253;SDS011;59019;47.638;18.966;2022-08-02T02:30:22;7.03;;;4.20;;
71253;SDS011;59019;47.638;18.966;2022-08-02T02:32:51;6.63;;;4.07;;
71253;SDS011;59019;47.638;18.966;2022-08-02T02:35:21;7.13;;;4.30;;
71253;SDS011;59019;47.638;18.966;2022-08-02T02:37:48;6.38;;;4.03;;
71253;SDS011;59019;47.638;18.966;2022-08-02T02:40:15;9.13;;;4.47;;
71253;SDS011;59019;47.638;18.966;2022-08-02T02:42:44;5.88;;;4.22;;
71253;SDS011;59019;47.638;18.966;2022-08-02T02:45:11;6.97;;;4.03;;
71253;SDS011;59019;47.638;18.966;2022-08-02T02:47:38;6.22;;;4.18;;
71253;SDS011;59019;47.638;18.966;2022-08-02T02:50:04;7.13;;;4.25;;
71253;SDS011;59019;47.638;18.966;2022-08-02T02:52:31;7.22;;;4.20;;
71253;SDS011;59019;47.638;18.966;2022-08-02T02:54:57;6.97;;;4.13;;
71253;SDS011;59019;47.638;18.966;2022-08-02T02:57:23;6.65;;;3.95;;
71253;SDS011;59019;47.638;18.966;2022-08-02T02:59:49;6.10;;;3.95;;
71253;SDS011;59019;47.638;18.966;2022-08-02T03:02:16;5.97;;;3.88;;
71253;SDS011;59019;47.638;18.966;2022-08-02T03:04:43;6.27;;;3.70;;
71253;SDS011;59019;47.638;18.966;2022-08-02T03:07:09;6.20;;;4.03;;
71253;SDS011;59019;47.638;18.966;2022-08-02T03:09:35;7.40;;;4.00;;
71253;SDS011;59019;47.638;18.966;2022-08-02T03:12:00;6.27;;;4.00;;
71253;SDS011;59019;47.638;18.966;2022-08-02T03:14:26;7.20;;;3.97;;
71253;SDS011;59019;47.638;18.966;2022-08-02T03:16:53;5.87;;;4.00;;
71253;SDS011;59019;47.638;18.966;2022-08-02T03:19:19;5.80;;;4.22;;
71253;SDS011;59019;47.638;18.966;2022-08-02T03:21:46;8.15;;;4.13;;
71253;SDS011;59019;47.638;18.966;2022-08-02T03:24:13;7.20;;;4.30;;
71253;SDS011;59019;47.638;18.966;2022-08-02T03:26:39;7.63;;;3.90;;
71253;SDS011;59019;47.638;18.966;2022-08-02T03:29:06;6.40;;;3.70;;
71253;SDS011;59019;47.638;18.966;2022-08-02T03:31:32;7.32;;;4.32;;
71253;SDS011;59019;47.638;18.966;2022-08-02T03:33:59;7.05;;;4.40;;
71253;SDS011;59019;47.638;18.966;2022-08-02T03:36:26;5.80;;;3.95;;
71253;SDS011;59019;47.638;18.966;2022-08-02T03:38:54;8.60;;;3.57;;
71253;SDS011;59019;47.638;18.966;2022-08-02T03:41:22;5.80;;;3.50;;
71253;SDS011;59019;47.638;18.966;2022-08-02T03:43:49;5.68;;;4.03;;
71253;SDS011;59019;47.638;18.966;2022-08-02T03:46:18;6.75;;;4.35;;
71253;SDS011;59019;47.638;18.966;2022-08-02T03:48:48;7.60;;;4.75;;
71253;SDS011;59019;47.638;18.966;2022-08-02T03:51:14;7.10;;;4.50;;
71253;SDS011;59019;47.638;18.966;2022-08-02T03:53:40;7.63;;;4.30;;
71253;SDS011;59019;47.638;18.966;2022-08-02T03:56:07;8.10;;;4.20;;
71253;SDS011;59019;47.638;18.966;2022-08-02T03:58:34;5.72;;;3.65;;
71253;SDS011;59019;47.638;18.966;2022-08-02T04:00:59;5.97;;;3.70;;
71253;SDS011;59019;47.638;18.966;2022-08-02T04:03:25;6.05;;;4.13;;
71253;SDS011;59019;47.638;18.966;2022-08-02T04:05:52;5.97;;;4.27;;
71253;SDS011;59019;47.638;18.966;2022-08-02T04:08:18;7.18;;;4.20;;
71253;SDS011;59019;47.638;18.966;2022-08-02T04:10:44;6.70;;;3.70;;
71253;SDS011;59019;47.638;18.966;2022-08-02T04:13:37;5.63;;;3.70;;
71253;SDS011;59019;47.638;18.966;2022-08-02T04:16:11;6.00;;;3.97;;
71253;SDS011;59019;47.638;18.966;2022-08-02T04:18:42;6.80;;;3.92;;
71253;SDS011;59019;47.638;18.966;2022-08-02T04:21:14;5.68;;;3.70;;
71253;SDS011;59019;47.638;18.966;2022-08-02T04:23:42;7.87;;;4.10;;
71253;SDS011;59019;47.638;18.966;2022-08-02T04:26:09;5.43;;;3.72;;
71253;SDS011;59019;47.638;18.966;2022-08-02T04:28:36;6.10;;;3.97;;
71253;SDS011;59019;47.638;18.966;2022-08-02T04:31:01;5.93;;;3.80;;
71253;SDS011;59019;47.638;18.966;2022-08-02T04:33:28;6.97;;;3.45;;
71253;SDS011;59019;47.638;18.966;2022-08-02T04:35:55;6.43;;;3.90;;
71253;SDS011;59019;47.638;18.966;2022-08-02T04:38:22;5.88;;;3.80;;
71253;SDS011;59019;47.638;18.966;2022-08-02T04:40:49;5.00;;;3.63;;
71253;SDS011;59019;47.638;18.966;2022-08-02T04:43:16;5.70;;;3.60;;
71253;SDS011;59019;47.638;18.966;2022-08-02T04:45:42;5.93;;;3.87;;
71253;SDS011;59019;47.638;18.966;2022-08-02T04:48:09;7.15;;;3.63;;
71253;SDS011;59019;47.638;18.966;2022-08-02T04:50:34;4.60;;;3.37;;
71253;SDS011;59019;47.638;18.966;2022-08-02T04:53:00;5.75;;;3.60;;
71253;SDS011;59019;47.638;18.966;2022-08-02T04:55:25;5.20;;;3.60;;
71253;SDS011;59019;47.638;18.966;2022-08-02T04:57:53;5.55;;;3.40;;
71253;SDS011;59019;47.638;18.966;2022-08-02T05:00:19;4.68;;;2.83;;
71253;SDS011;59019;47.638;18.966;2022-08-02T05:02:45;5.38;;;2.92;;
71253;SDS011;59019;47.638;18.966;2022-08-02T05:05:10;5.73;;;3.10;;
71253;SDS011;59019;47.638;18.966;2022-08-02T05:07:36;6.20;;;3.10;;
71253;SDS011;59019;47.638;18.966;2022-08-02T05:10:02;6.22;;;3.33;;
71253;SDS011;59019;47.638;18.966;2022-08-02T05:12:29;5.68;;;3.33;;
71253;SDS011;59019;47.638;18.966;2022-08-02T05:14:54;5.00;;;3.67;;
71253;SDS011;59019;47.638;18.966;2022-08-02T05:17:22;6.82;;;3.80;;
71253;SDS011;59019;47.638;18.966;2022-08-02T05:19:48;5.65;;;3.58;;
71253;SDS011;59019;47.638;18.966;2022-08-02T05:22:14;9.38;;;3.70;;
71253;SDS011;59019;47.638;18.966;2022-08-02T05:24:39;5.60;;;3.43;;
71253;SDS011;59019;47.638;18.966;2022-08-02T05:27:05;5.03;;;3.10;;
71253;SDS011;59019;47.638;18.966;2022-08-02T05:29:30;5.70;;;3.28;;
71253;SDS011;59019;47.638;18.966;2022-08-02T05:31:56;6.10;;;3.07;;
71253;SDS011;59019;47.638;18.966;2022-08-02T05:34:21;5.93;;;3.50;;
71253;SDS011;59019;47.638;18.966;2022-08-02T05:36:47;6.07;;;3.05;;
71253;SDS011;59019;47.638;18.966;2022-08-02T05:39:13;5.13;;;3.20;;
71253;SDS011;59019;47.638;18.966;2022-08-02T05:41:38;5.60;;;3.17;;
71253;SDS011;59019;47.638;18.966;2022-08-02T05:44:04;4.80;;;3.00;;
71253;SDS011;59019;47.638;18.966;2022-08-02T05:46:29;5.30;;;3.00;;
71253;SDS011;59019;47.638;18.966;2022-08-02T05:48:55;5.33;;;3.10;;
71253;SDS011;59019;47.638;18.966;2022-08-02T05:51:22;4.47;;;2.67;;
71253;SDS011;59019;47.638;18.966;2022-08-02T05:54:00;8.80;;;2.90;;
71253;SDS011;59019;47.638;18.966;2022-08-02T05:56:41;5.18;;;2.63;;
71253;SDS011;59019;47.638;18.966;2022-08-02T05:59:11;5.43;;;2.77;;
71253;SDS011;59019;47.638;18.966;2022-08-02T06:01:44;4.72;;;2.50;;
71253;SDS011;59019;47.638;18.966;2022-08-02T06:04:16;4.07;;;2.45;;
71253;SDS011;59019;47.638;18.966;2022-08-02T06:06:48;4.03;;;2.50;;
71253;SDS011;59019;47.638;18.966;2022-08-02T06:09:19;4.97;;;2.60;;
71253;SDS011;59019;47.638;18.966;2022-08-02T06:11:48;5.53;;;2.60;;
71253;SDS011;59019;47.638;18.966;2022-08-02T06:14:16;5.90;;;2.72;;
71253;SDS011;59019;47.638;18.966;2022-08-02T06:16:42;4.72;;;2.40;;
71253;SDS011;59019;47.638;18.966;2022-08-02T06:19:10;4.75;;;2.60;;
71253;SDS011;59019;47.638;18.966;2022-08-02T06:21:38;3.70;;;2.38;;
71253;SDS011;59019;47.638;18.966;2022-08-02T06:24:05;5.20;;;2.65;;
71253;SDS011;59019;47.638;18.966;2022-08-02T06:26:33;6.15;;;2.60;;
71253;SDS011;59019;47.638;18.966;2022-08-02T06:29:00;4.43;;;2.28;;
71253;SDS011;59019;47.638;18.966;2022-08-02T06:31:27;6.65;;;2.40;;
71253;SDS011;59019;47.638;18.966;2022-08-02T06:33:54;4.80;;;2.35;;
71253;SDS011;59019;47.638;18.966;2022-08-02T06:36:25;4.15;;;2.30;;
71253;SDS011;59019;47.638;18.966;2022-08-02T06:38:55;4.47;;;2.33;;
71253;SDS011;59019;47.638;18.966;2022-08-02T06:41:30;4.88;;;2.55;;
71253;SDS011;59019;47.638;18.966;2022-08-02T06:44:02;4.45;;;2.40;;
71253;SDS011;59019;47.638;18.966;2022-08-02T06:46:28;4.78;;;2.30;;
71253;SDS011;59019;47.638;18.966;2022-08-02T06:48:55;3.88;;;2.30;;
71253;SDS011;59019;47.638;18.966;2022-08-02T06:51:21;4.20;;;2.30;;
71253;SDS011;59019;47.638;18.966;2022-08-02T06:53:48;4.80;;;2.47;;
71253;SDS011;59019;47.638;18.966;2022-08-02T06:56:14;4.10;;;2.42;;
71253;SDS011;59019;47.638;18.966;2022-08-02T06:58:40;4.53;;;2.47;;
71253;SDS011;59019;47.638;18.966;2022-08-02T07:01:05;4.53;;;2.35;;
71253;SDS011;59019;47.638;18.966;2022-08-02T07:03:35;4.90;;;2.45;;
71253;SDS011;59019;47.638;18.966;2022-08-02T07:06:02;4.95;;;2.78;;
71253;SDS011;59019;47.638;18.966;2022-08-02T07:08:29;4.65;;;2.70;;
71253;SDS011;59019;47.638;18.966;2022-08-02T07:11:00;4.32;;;2.60;;
71253;SDS011;59019;47.638;18.966;2022-08-02T07:13:27;4.25;;;2.30;;
71253;SDS011;59019;47.638;18.966;2022-08-02T07:15:53;5.68;;;2.45;;
71253;SDS011;59019;47.638;18.966;2022-08-02T07:18:19;4.45;;;2.50;;
71253;SDS011;59019;47.638;18.966;2022-08-02T07:20:46;4.15;;;2.50;;
71253;SDS011;59019;47.638;18.966;2022-08-02T07:23:12;5.40;;;2.70;;
71253;SDS011;59019;47.638;18.966;2022-08-02T07:25:38;6.70;;;2.45;;
71253;SDS011;59019;47.638;18.966;2022-08-02T07:28:04;4.95;;;2.22;;
71253;SDS011;59019;47.638;18.966;2022-08-02T07:30:30;3.80;;;2.20;;
71253;SDS011;59019;47.638;18.966;2022-08-02T07:32:57;5.38;;;2.50;;
71253;SDS011;59019;47.638;18.966;2022-08-02T07:35:24;3.53;;;2.13;;
71253;SDS011;59019;47.638;18.966;2022-08-02T07:37:50;5.43;;;2.40;;
71253;SDS011;59019;47.638;18.966;2022-08-02T07:40:15;4.53;;;2.77;;
71253;SDS011;59019;47.638;18.966;2022-08-02T07:42:42;4.25;;;2.58;;
71253;SDS011;59019;47.638;18.966;2022-08-02T07:45:12;4.80;;;2.30;;
71253;SDS011;59019;47.638;18.966;2022-08-02T07:47:39;4.45;;;2.80;;
71253;SDS011;59019;47.638;18.966;2022-08-02T07:50:05;4.30;;;2.50;;
71253;SDS011;59019;47.638;18.966;2022-08-02T07:52:31;4.32;;;2.63;;
71253;SDS011;59019;47.638;18.966;2022-08-02T07:54:57;5.63;;;2.63;;
71253;SDS011;59019;47.638;18.966;2022-08-02T07:57:24;4.32;;;2.67;;
71253;SDS011;59019;47.638;18.966;2022-08-02T07:59:50;5.88;;;2.75;;
71253;SDS011;59019;47.638;18.966;2022-08-02T08:02:16;4.85;;;2.60;;
71253;SDS011;59019;47.638;18.966;2022-08-02T08:04:41;5.33;;;2.40;;
71253;SDS011;59019;47.638;18.966;2022-08-02T08:07:07;4.55;;;2.40;;
71253;SDS011;59019;47.638;18.966;2022-08-02T08:09:35;5.20;;;2.60;;
71253;SDS011;59019;47.638;18.966;2022-08-02T08:12:06;4.95;;;2.50;;
71253;SDS011;59019;47.638;18.966;2022-08-02T08:14:32;4.47;;;2.53;;
71253;SDS011;59019;47.638;18.966;2022-08-02T08:16:58;5.03;;;2.20;;
71253;SDS011;59019;47.638;18.966;2022-08-02T08:19:24;5.70;;;2.35;;
71253;SDS011;59019;47.638;18.966;2022-08-02T08:21:50;5.80;;;2.20;;
71253;SDS011;59019;47.638;18.966;2022-08-02T08:24:15;3.90;;;2.10;;
71253;SDS011;59019;47.638;18.966;2022-08-02T08:26:41;6.53;;;2.60;;
71253;SDS011;59019;47.638;18.966;2022-08-02T08:29:07;6.70;;;2.25;;
71253;SDS011;59019;47.638;18.966;2022-08-02T08:31:33;5.17;;;2.50;;
71253;SDS011;59019;47.638;18.966;2022-08-02T08:33:59;4.93;;;2.40;;
71253;SDS011;59019;47.638;18.966;2022-08-02T08:36:24;4.10;;;2.28;;
71253;SDS011;59019;47.638;18.966;2022-08-02T08:38:50;4.00;;;2.20;;
71253;SDS011;59019;47.638;18.966;2022-08-02T08:41:16;4.13;;;2.40;;
71253;SDS011;59019;47.638;18.966;2022-08-02T08:43:42;5.82;;;2.30;;
71253;SDS011;59019;47.638;18.966;2022-08-02T08:49:10;4.38;;;2.20;;
71253;SDS011;59019;47.638;18.966;2022-08-02T08:51:43;4.35;;;2.33;;
71253;SDS011;59019;47.638;18.966;2022-08-02T08:54:09;4.78;;;2.30;;
71253;SDS011;59019;47.638;18.966;2022-08-02T08:56:39;5.07;;;2.00;;
71253;SDS011;59019;47.638;18.966;2022-08-02T08:59:07;3.80;;;2.10;;
71253;SDS011;59019;47.638;18.966;2022-08-02T09:01:34;3.78;;;2.17;;
71253;SDS011;59019;47.638;18.966;2022-08-02T09:03:59;4.57;;;2.10;;
71253;SDS011;59019;47.638;18.966;2022-08-02T09:06:25;4.03;;;2.00;;
71253;SDS011;59019;47.638;18.966;2022-08-02T09:08:51;5.30;;;2.07;;
71253;SDS011;59019;47.638;18.966;2022-08-02T09:11:17;3.80;;;2.15;;
71253;SDS011;59019;47.638;18.966;2022-08-02T09:13:56;4.70;;;2.17;;
71253;SDS011;59019;47.638;18.966;2022-08-02T09:18:53;6.28;;;2.30;;
71253;SDS011;59019;47.638;18.966;2022-08-02T09:21:20;4.90;;;2.13;;
71253;SDS011;59019;47.638;18.966;2022-08-02T09:23:49;6.20;;;2.27;;
71253;SDS011;59019;47.638;18.966;2022-08-02T09:26:17;4.13;;;2.25;;
71253;SDS011;59019;47.638;18.966;2022-08-02T09:28:45;4.38;;;2.20;;
71253;SDS011;59019;47.638;18.966;2022-08-02T09:31:13;4.47;;;2.08;;
71253;SDS011;59019;47.638;18.966;2022-08-02T09:33:56;3.55;;;2.13;;
71253;SDS011;59019;47.638;18.966;2022-08-02T09:36:23;4.28;;;2.30;;
71253;SDS011;59019;47.638;18.966;2022-08-02T09:41:27;4.22;;;2.17;;
71253;SDS011;59019;47.638;18.966;2022-08-02T09:43:55;4.15;;;2.15;;
71253;SDS011;59019;47.638;18.966;2022-08-02T09:46:22;4.25;;;2.10;;
71253;SDS011;59019;47.638;18.966;2022-08-02T09:48:50;4.07;;;2.30;;
71253;SDS011;59019;47.638;18.966;2022-08-02T09:51:24;3.72;;;2.22;;
71253;SDS011;59019;47.638;18.966;2022-08-02T09:53:52;4.70;;;2.05;;
71253;SDS011;59019;47.638;18.966;2022-08-02T09:56:23;5.40;;;2.40;;
71253;SDS011;59019;47.638;18.966;2022-08-02T09:58:51;4.60;;;2.38;;
71253;SDS011;59019;47.638;18.966;2022-08-02T10:01:19;3.67;;;2.10;;
71253;SDS011;59019;47.638;18.966;2022-08-02T10:03:52;3.72;;;2.03;;
71253;SDS011;59019;47.638;18.966;2022-08-02T10:06:20;4.85;;;2.00;;
71253;SDS011;59019;47.638;18.966;2022-08-02T10:08:46;4.10;;;2.05;;
71253;SDS011;59019;47.638;18.966;2022-08-02T10:11:12;4.00;;;2.30;;
71253;SDS011;59019;47.638;18.966;2022-08-02T10:13:38;4.90;;;2.60;;
71253;SDS011;59019;47.638;18.966;2022-08-02T10:16:04;4.10;;;2.20;;
71253;SDS011;59019;47.638;18.966;2022-08-02T10:18:31;4.10;;;2.10;;
71253;SDS011;59019;47.638;18.966;2022-08-02T10:20:58;4.93;;;2.20;;
71253;SDS011;59019;47.638;18.966;2022-08-02T10:23:26;3.80;;;2.05;;
71253;SDS011;59019;47.638;18.966;2022-08-02T10:25:56;3.97;;;1.80;;
71253;SDS011;59019;47.638;18.966;2022-08-02T10:28:25;4.70;;;1.90;;
71253;SDS011;59019;47.638;18.966;2022-08-02T10:31:01;5.15;;;2.20;;
71253;SDS011;59019;47.638;18.966;2022-08-02T10:33:29;3.63;;;2.17;;
71253;SDS011;59019;47.638;18.966;2022-08-02T10:35:58;3.50;;;2.10;;
71253;SDS011;59019;47.638;18.966;2022-08-02T10:38:25;5.57;;;2.40;;
71253;SDS011;59019;47.638;18.966;2022-08-02T10:40:52;4.43;;;2.15;;
71253;SDS011;59019;47.638;18.966;2022-08-02T10:43:39;3.85;;;2.00;;
71253;SDS011;59019;47.638;18.966;2022-08-02T10:46:20;4.95;;;2.05;;
71253;SDS011;59019;47.638;18.966;2022-08-02T10:54:19;3.30;;;1.73;;
71253;SDS011;59019;47.638;18.966;2022-08-02T10:56:47;3.20;;;1.95;;
71253;SDS011;59019;47.638;18.966;2022-08-02T10:59:24;4.35;;;2.00;;
71253;SDS011;59019;47.638;18.966;2022-08-02T11:01:51;4.22;;;2.10;;
71253;SDS011;59019;47.638;18.966;2022-08-02T11:04:26;4.70;;;2.10;;
71253;SDS011;59019;47.638;18.966;2022-08-02T11:07:13;3.53;;;2.20;;
71253;SDS011;59019;47.638;18.966;2022-08-02T11:09:44;4.95;;;2.00;;
71253;SDS011;59019;47.638;18.966;2022-08-02T11:12:12;4.03;;;2.10;;
71253;SDS011;59019;47.638;18.966;2022-08-02T11:14:39;4.55;;;2.15;;
71253;SDS011;59019;47.638;18.966;2022-08-02T11:17:16;3.67;;;1.98;;
71253;SDS011;59019;47.638;18.966;2022-08-02T11:22:47;4.20;;;2.00;;
71253;SDS011;59019;47.638;18.966;2022-08-02T11:27:56;3.65;;;1.83;;
71253;SDS011;59019;47.638;18.966;2022-08-02T11:30:24;3.88;;;1.90;;
71253;SDS011;59019;47.638;18.966;2022-08-02T11:32:54;4.68;;;1.90;;
71253;SDS011;59019;47.638;18.966;2022-08-02T11:35:21;3.28;;;1.80;;
71253;SDS011;59019;47.638;18.966;2022-08-02T11:37:46;3.10;;;1.70;;
71253;SDS011;59019;47.638;18.966;2022-08-02T11:40:13;3.43;;;1.43;;
71253;SDS011;59019;47.638;18.966;2022-08-02T11:42:41;2.95;;;1.55;;
71253;SDS011;59019;47.638;18.966;2022-08-02T11:45:11;3.72;;;1.85;;
71253;SDS011;59019;47.638;18.966;2022-08-02T11:47:48;3.42;;;1.77;;
71253;SDS011;59019;47.638;18.966;2022-08-02T11:50:15;2.85;;;1.38;;
71253;SDS011;59019;47.638;18.966;2022-08-02T11:52:42;2.70;;;1.30;;
71253;SDS011;59019;47.638;18.966;2022-08-02T11:55:09;3.22;;;1.67;;
71253;SDS011;59019;47.638;18.966;2022-08-02T11:57:35;3.45;;;1.83;;
71253;SDS011;59019;47.638;18.966;2022-08-02T12:00:02;3.78;;;1.70;;
71253;SDS011;59019;47.638;18.966;2022-08-02T12:02:29;3.10;;;1.70;;
71253;SDS011;59019;47.638;18.966;2022-08-02T12:05:04;3.53;;;1.60;;
71253;SDS011;59019;47.638;18.966;2022-08-02T12:07:32;3.90;;;1.55;;
71253;SDS011;59019;47.638;18.966;2022-08-02T12:10:01;3.40;;;1.80;;
71253;SDS011;59019;47.638;18.966;2022-08-02T12:12:58;3.03;;;1.60;;
71253;SDS011;59019;47.638;18.966;2022-08-02T12:18:00;4.20;;;1.83;;
71253;SDS011;59019;47.638;18.966;2022-08-02T12:20:45;3.30;;;1.90;;
71253;SDS011;59019;47.638;18.966;2022-08-02T12:23:10;3.47;;;1.90;;
71253;SDS011;59019;47.638;18.966;2022-08-02T12:25:36;3.50;;;1.77;;
71253;SDS011;59019;47.638;18.966;2022-08-02T12:28:15;3.88;;;1.70;;
71253;SDS011;59019;47.638;18.966;2022-08-02T12:30:57;3.22;;;1.80;;
71253;SDS011;59019;47.638;18.966;2022-08-02T12:33:24;3.97;;;1.80;;
71253;SDS011;59019;47.638;18.966;2022-08-02T12:35:51;3.30;;;1.50;;
71253;SDS011;59019;47.638;18.966;2022-08-02T12:38:19;4.10;;;1.90;;
71253;SDS011;59019;47.638;18.966;2022-08-02T12:40:45;3.10;;;1.70;;
71253;SDS011;59019;47.638;18.966;2022-08-02T12:43:29;4.17;;;1.67;;
71253;SDS011;59019;47.638;18.966;2022-08-02T12:45:55;3.22;;;1.52;;
71253;SDS011;59019;47.638;18.966;2022-08-02T12:48:33;5.75;;;1.58;;
71253;SDS011;59019;47.638;18.966;2022-08-02T12:53:49;3.75;;;1.60;;
71253;SDS011;59019;47.638;18.966;2022-08-02T12:56:36;3.73;;;1.60;;
71253;SDS011;59019;47.638;18.966;2022-08-02T12:59:03;4.20;;;1.45;;
71253;SDS011;59019;47.638;18.966;2022-08-02T13:01:29;2.90;;;1.50;;
71253;SDS011;59019;47.638;18.966;2022-08-02T13:03:55;2.70;;;1.23;;
71253;SDS011;59019;47.638;18.966;2022-08-02T13:06:22;2.67;;;1.40;;
71253;SDS011;59019;47.638;18.966;2022-08-02T13:08:49;3.43;;;1.60;;
71253;SDS011;59019;47.638;18.966;2022-08-02T13:11:17;3.15;;;1.60;;
71253;SDS011;59019;47.638;18.966;2022-08-02T13:13:43;2.85;;;1.40;;
71253;SDS011;59019;47.638;18.966;2022-08-02T13:16:09;3.37;;;1.30;;
71253;SDS011;59019;47.638;18.966;2022-08-02T13:18:35;3.10;;;1.40;;
71253;SDS011;59019;47.638;18.966;2022-08-02T13:21:01;2.40;;;1.00;;
71253;SDS011;59019;47.638;18.966;2022-08-02T13:23:29;2.60;;;1.30;;
71253;SDS011;59019;47.638;18.966;2022-08-02T13:25:55;2.95;;;1.23;;
71253;SDS011;59019;47.638;18.966;2022-08-02T13:28:20;2.70;;;1.10;;
71253;SDS011;59019;47.638;18.966;2022-08-02T13:30:47;2.42;;;0.90;;
71253;SDS011;59019;47.638;18.966;2022-08-02T13:33:13;2.60;;;1.10;;
71253;SDS011;59019;47.638;18.966;2022-08-02T13:35:40;2.50;;;1.00;;
71253;SDS011;59019;47.638;18.966;2022-08-02T13:38:06;2.92;;;1.00;;
71253;SDS011;59019;47.638;18.966;2022-08-02T13:40:32;3.10;;;1.10;;
71253;SDS011;59019;47.638;18.966;2022-08-02T13:42:57;2.40;;;0.87;;
71253;SDS011;59019;47.638;18.966;2022-08-02T13:45:23;2.85;;;0.90;;
71253;SDS011;59019;47.638;18.966;2022-08-02T13:47:49;2.57;;;0.87;;
71253;SDS011;59019;47.638;18.966;2022-08-02T13:50:15;2.35;;;0.80;;
71253;SDS011;59019;47.638;18.966;2022-08-02T13:52:41;2.45;;;0.98;;
71253;SDS011;59019;47.638;18.966;2022-08-02T13:55:06;4.05;;;1.02;;
71253;SDS011;59019;47.638;18.966;2022-08-02T13:57:33;2.95;;;0.90;;
71253;SDS011;59019;47.638;18.966;2022-08-02T13:59:58;2.40;;;0.80;;
71253;SDS011;59019;47.638;18.966;2022-08-02T14:02:27;2.45;;;0.95;;
71253;SDS011;59019;47.638;18.966;2022-08-02T14:04:53;2.53;;;1.13;;
71253;SDS011;59019;47.638;18.966;2022-08-02T14:07:18;2.50;;;1.08;;
71253;SDS011;59019;47.638;18.966;2022-08-02T14:09:44;2.83;;;1.10;;
71253;SDS011;59019;47.638;18.966;2022-08-02T14:12:10;2.90;;;1.10;;
71253;SDS011;59019;47.638;18.966;2022-08-02T14:14:36;3.58;;;1.20;;
71253;SDS011;59019;47.638;18.966;2022-08-02T14:17:03;2.33;;;0.90;;
71253;SDS011;59019;47.638;18.966;2022-08-02T14:19:28;3.05;;;0.90;;
71253;SDS011;59019;47.638;18.966;2022-08-02T14:21:54;2.70;;;1.07;;
71253;SDS011;59019;47.638;18.966;2022-08-02T14:24:20;2.75;;;1.02;;
71253;SDS011;59019;47.638;18.966;2022-08-02T14:26:46;3.53;;;0.90;;
71253;SDS011;59019;47.638;18.966;2022-08-02T14:29:13;3.65;;;1.00;;
71253;SDS011;59019;47.638;18.966;2022-08-02T14:31:39;4.45;;;1.13;;
71253;SDS011;59019;47.638;18.966;2022-08-02T14:34:05;2.65;;;1.00;;
71253;SDS011;59019;47.638;18.966;2022-08-02T14:36:30;2.70;;;1.10;;
71253;SDS011;59019;47.638;18.966;2022-08-02T14:38:56;3.78;;;1.00;;
71253;SDS011;59019;47.638;18.966;2022-08-02T14:41:22;2.50;;;1.00;;
71253;SDS011;59019;47.638;18.966;2022-08-02T14:43:48;3.67;;;1.00;;
71253;SDS011;59019;47.638;18.966;2022-08-02T14:46:29;2.55;;;1.00;;
71253;SDS011;59019;47.638;18.966;2022-08-02T14:48:55;2.63;;;1.00;;
71253;SDS011;59019;47.638;18.966;2022-08-02T14:51:20;2.50;;;1.00;;
71253;SDS011;59019;47.638;18.966;2022-08-02T14:53:46;2.73;;;1.03;;
71253;SDS011;59019;47.638;18.966;2022-08-02T14:56:12;3.13;;;0.95;;
71253;SDS011;59019;47.638;18.966;2022-08-02T14:58:37;2.60;;;1.03;;
71253;SDS011;59019;47.638;18.966;2022-08-02T15:01:03;2.63;;;1.10;;
71253;SDS011;59019;47.638;18.966;2022-08-02T15:03:29;3.37;;;1.00;;
71253;SDS011;59019;47.638;18.966;2022-08-02T15:05:54;2.55;;;1.08;;
71253;SDS011;59019;47.638;18.966;2022-08-02T15:08:20;2.70;;;1.20;;